RA85660 UUMO-UUML

Flight info

Callsign RA85660
Flight time N/A
Altitude 2000
Route UUMO SID STAR UUML
Aircraft C172/L-LR/2200

Departure

Time N/A
Airport UUMO

Arrival

Time 2026-04-29 13:51
Airport Severka Airfield (UUML)
Time Latitude Longitude Altitude Speed Heading
2026-04-29 13:05 55.51529 37.49883 558 ft 0 kts 298°
2026-04-29 13:17 55.51531 37.49868 558 ft 2 kts 272°
2026-04-29 13:17 55.51512 37.49828 558 ft 6 kts 216°
2026-04-29 13:18 55.51469 37.49771 557 ft 9 kts 214°
2026-04-29 13:18 55.51409 37.49702 556 ft 11 kts 210°
2026-04-29 13:18 55.51333 37.49623 554 ft 13 kts 210°
2026-04-29 13:18 55.51245 37.49532 552 ft 15 kts 213°
2026-04-29 13:19 55.51145 37.49440 550 ft 16 kts 212°
2026-04-29 13:19 55.51047 37.49327 547 ft 13 kts 213°
2026-04-29 13:19 55.51028 37.49307 547 ft 0 kts 212°
2026-04-29 13:19 55.51008 37.49284 546 ft 8 kts 211°
2026-04-29 13:20 55.50927 37.49197 543 ft 18 kts 212°
2026-04-29 13:20 55.50818 37.49134 541 ft 4 kts 176°
2026-04-29 13:20 55.50817 37.49135 541 ft 0 kts 176°
2026-04-29 13:20 55.50815 37.49135 541 ft 1 kts 174°
2026-04-29 13:21 55.50769 37.49147 540 ft 11 kts 176°
2026-04-29 13:21 55.50696 37.49234 541 ft 17 kts 85°
2026-04-29 13:21 55.50726 37.49724 549 ft 61 kts 84°
2026-04-29 13:21 55.50766 37.50590 627 ft 75 kts 88°
2026-04-29 13:22 55.50793 37.51527 760 ft 78 kts 89°
2026-04-29 13:22 55.50808 37.52534 901 ft 84 kts 87°
2026-04-29 13:22 55.50856 37.53610 1030 ft 90 kts 86°
2026-04-29 13:22 55.50907 37.54732 1164 ft 94 kts 87°
2026-04-29 13:23 55.50958 37.55895 1290 ft 97 kts 86°
2026-04-29 13:23 55.51011 37.57089 1417 ft 99 kts 86°
2026-04-29 13:23 55.51063 37.58307 1543 ft 100 kts 87°
2026-04-29 13:23 55.51118 37.59529 1669 ft 100 kts 86°
2026-04-29 13:24 55.51169 37.60719 1792 ft 101 kts 87°
2026-04-29 13:24 55.51221 37.61979 1920 ft 101 kts 86°
2026-04-29 13:24 55.51073 37.63149 2037 ft 100 kts 126°
2026-04-29 13:24 55.50509 37.63907 2065 ft 107 kts 153°
2026-04-29 13:25 55.49811 37.64503 2070 ft 112 kts 155°
2026-04-29 13:25 55.48364 37.65695 2070 ft 116 kts 156°
2026-04-29 13:25 55.47627 37.66301 2072 ft 117 kts 155°
2026-04-29 13:26 55.46887 37.66906 2073 ft 117 kts 155°
2026-04-29 13:26 55.46144 37.67522 2076 ft 117 kts 156°
2026-04-29 13:26 55.45409 37.68131 2078 ft 117 kts 156°
2026-04-29 13:26 55.44669 37.68744 2078 ft 117 kts 156°
2026-04-29 13:27 55.43924 37.69359 2078 ft 117 kts 156°
2026-04-29 13:27 55.43187 37.69971 2076 ft 117 kts 156°
2026-04-29 13:27 55.42447 37.70582 2076 ft 117 kts 156°
2026-04-29 13:27 55.41709 37.71196 2074 ft 118 kts 155°
2026-04-29 13:28 55.40963 37.71812 2073 ft 118 kts 156°
2026-04-29 13:28 55.40225 37.72418 2069 ft 118 kts 155°
2026-04-29 13:28 55.39482 37.73034 2066 ft 118 kts 156°
2026-04-29 13:28 55.38723 37.73662 2067 ft 118 kts 155°
2026-04-29 13:29 55.37981 37.74276 2064 ft 118 kts 155°
2026-04-29 13:29 55.37237 37.74888 2063 ft 118 kts 156°
2026-04-29 13:29 55.36494 37.75501 2063 ft 118 kts 156°
2026-04-29 13:29 55.35739 37.76128 2068 ft 118 kts 155°
2026-04-29 13:30 55.34996 37.76741 2066 ft 118 kts 156°
2026-04-29 13:30 55.34248 37.77359 2066 ft 118 kts 155°
2026-04-29 13:30 55.33511 37.77968 2065 ft 118 kts 155°
2026-04-29 13:30 55.32768 37.78587 2064 ft 118 kts 156°
2026-04-29 13:31 55.32019 37.79208 2066 ft 118 kts 155°
2026-04-29 13:31 55.31276 37.79821 2066 ft 118 kts 156°
2026-04-29 13:31 55.30541 37.80437 2066 ft 118 kts 155°
2026-04-29 13:31 55.29797 37.81057 2065 ft 118 kts 155°
2026-04-29 13:32 55.29057 37.81671 2062 ft 118 kts 155°
2026-04-29 13:32 55.28319 37.82284 2067 ft 118 kts 155°
2026-04-29 13:32 55.27581 37.82904 2066 ft 118 kts 155°
2026-04-29 13:32 55.26835 37.83527 2069 ft 118 kts 155°
2026-04-29 13:33 55.26095 37.84145 2066 ft 118 kts 155°
2026-04-29 13:33 55.25350 37.84764 2067 ft 118 kts 155°
2026-04-29 13:33 55.24613 37.85378 2067 ft 118 kts 155°
2026-04-29 13:33 55.23871 37.85999 2067 ft 118 kts 155°
2026-04-29 13:34 55.23130 37.86610 2069 ft 118 kts 155°
2026-04-29 13:34 55.22391 37.87223 2070 ft 118 kts 155°
2026-04-29 13:34 55.21655 37.87836 2070 ft 118 kts 155°
2026-04-29 13:34 55.20916 37.88450 2067 ft 118 kts 155°
2026-04-29 13:35 55.20182 37.89058 2067 ft 118 kts 155°
2026-04-29 13:35 55.19430 37.89685 2064 ft 118 kts 155°
2026-04-29 13:35 55.18689 37.90301 2067 ft 118 kts 155°
2026-04-29 13:35 55.17952 37.90920 2062 ft 118 kts 155°
2026-04-29 13:36 55.17218 37.91538 2060 ft 118 kts 155°
2026-04-29 13:36 55.16477 37.92155 2059 ft 118 kts 155°
2026-04-29 13:36 55.15739 37.92775 2059 ft 118 kts 155°
2026-04-29 13:36 55.14990 37.93407 2062 ft 118 kts 155°
2026-04-29 13:37 55.14258 37.94022 2062 ft 118 kts 155°
2026-04-29 13:37 55.13510 37.94647 2065 ft 118 kts 155°
2026-04-29 13:37 55.12767 37.95274 2066 ft 118 kts 154°
2026-04-29 13:37 55.12199 37.96278 2071 ft 119 kts 120°
2026-04-29 13:38 55.11825 37.97575 2076 ft 119 kts 116°
2026-04-29 13:38 55.11472 37.98888 2077 ft 119 kts 116°
2026-04-29 13:38 55.11121 38.00191 2074 ft 120 kts 116°
2026-04-29 13:38 55.10793 38.01540 2071 ft 120 kts 103°
2026-04-29 13:39 55.10823 38.03005 2075 ft 120 kts 86°
2026-04-29 13:39 55.10909 38.04452 2080 ft 121 kts 84°
2026-04-29 13:39 55.10996 38.05925 2084 ft 121 kts 84°
2026-04-29 13:39 55.11082 38.07377 2081 ft 121 kts 85°
2026-04-29 13:40 55.11149 38.08860 2078 ft 121 kts 92°
2026-04-29 13:40 55.11119 38.10312 2076 ft 121 kts 93°
2026-04-29 13:40 55.11080 38.11789 2075 ft 121 kts 94°
2026-04-29 13:40 55.11044 38.13257 2075 ft 121 kts 93°
2026-04-29 13:41 55.11005 38.14726 2078 ft 121 kts 93°
2026-04-29 13:41 55.11023 38.16202 2077 ft 121 kts 85°
2026-04-29 13:41 55.11113 38.17667 2075 ft 122 kts 84°
2026-04-29 13:41 55.11210 38.19157 2072 ft 122 kts 85°
2026-04-29 13:42 55.11308 38.20625 2070 ft 122 kts 85°
2026-04-29 13:42 55.11409 38.22097 2069 ft 122 kts 85°
2026-04-29 13:42 55.11508 38.23574 2065 ft 122 kts 84°
2026-04-29 13:42 55.11608 38.25051 2062 ft 122 kts 84°
2026-04-29 13:43 55.11710 38.26543 2058 ft 122 kts 84°
2026-04-29 13:43 55.11808 38.28017 2053 ft 122 kts 84°
2026-04-29 13:43 55.11910 38.29475 2052 ft 122 kts 83°
2026-04-29 13:43 55.12113 38.30930 2053 ft 123 kts 75°
2026-04-29 13:44 55.12353 38.32359 2055 ft 122 kts 74°
2026-04-29 13:44 55.12600 38.33775 2055 ft 120 kts 73°
2026-04-29 13:44 55.12848 38.35168 2056 ft 120 kts 74°
2026-04-29 13:44 55.13096 38.36556 2052 ft 119 kts 73°
2026-04-29 13:45 55.13338 38.37929 2050 ft 119 kts 74°
2026-04-29 13:45 55.13582 38.39307 2053 ft 119 kts 74°
2026-04-29 13:45 55.13820 38.40698 2057 ft 119 kts 74°
2026-04-29 13:45 55.14064 38.42087 2058 ft 119 kts 74°
2026-04-29 13:46 55.14306 38.43456 2057 ft 119 kts 75°
2026-04-29 13:46 55.14553 38.44839 2058 ft 119 kts 73°
2026-04-29 13:46 55.14795 38.46216 2057 ft 119 kts 73°
2026-04-29 13:46 55.15036 38.47597 2059 ft 119 kts 74°
2026-04-29 13:47 55.15282 38.48985 2056 ft 119 kts 74°
2026-04-29 13:47 55.15527 38.50375 2051 ft 119 kts 73°
2026-04-29 13:47 55.15769 38.51748 2014 ft 120 kts 74°
2026-04-29 13:47 55.16018 38.53139 1932 ft 118 kts 74°
2026-04-29 13:48 55.16264 38.54518 1855 ft 118 kts 74°
2026-04-29 13:48 55.16512 38.55883 1780 ft 117 kts 72°
2026-04-29 13:48 55.16848 38.57185 1685 ft 118 kts 65°
2026-04-29 13:48 55.17209 38.58472 1584 ft 117 kts 65°
2026-04-29 13:49 55.17624 38.59673 1486 ft 114 kts 56°
2026-04-29 13:49 55.18076 38.60826 1307 ft 109 kts 58°
2026-04-29 13:49 55.18431 38.61831 1231 ft 91 kts 58°
2026-04-29 13:49 55.18759 38.62741 1104 ft 86 kts 59°
2026-04-29 13:50 55.19078 38.63603 974 ft 83 kts 58°
2026-04-29 13:50 55.19372 38.64415 927 ft 79 kts 59°
2026-04-29 13:50 55.19656 38.65190 841 ft 71 kts 59°
2026-04-29 13:50 55.19924 38.65897 707 ft 66 kts 60°
2026-04-29 13:51 55.20164 38.66558 589 ft 62 kts 60°
2026-04-29 13:51 55.20393 38.67190 477 ft 62 kts 62°
2026-04-29 13:51 55.20609 38.67787 430 ft 42 kts 60°
2026-04-29 13:51 55.20681 38.67999 435 ft 11 kts 60°
2026-04-29 13:52 55.20688 38.68013 435 ft 2 kts 358°
2026-04-29 13:52 55.20681 38.67983 435 ft 9 kts 241°
2026-04-29 13:52 55.20622 38.67813 431 ft 19 kts 237°
2026-04-29 13:52 55.20554 38.67635 428 ft 17 kts 236°
2026-04-29 13:53 55.20535 38.67573 428 ft 7 kts 244°
2026-04-29 13:53 55.20538 38.67546 427 ft 3 kts 330°
2026-04-29 13:53 55.20570 38.67533 428 ft 6 kts 350°
2026-04-29 13:53 55.20602 38.67543 428 ft 4 kts 96°
2026-04-29 13:54 55.20605 38.67553 428 ft 0 kts 352°
2026-04-29 13:54 55.20612 38.67547 428 ft 0 kts 335°